createdAt,value
2019-03-25T00:02:34.653Z,4.70
2019-03-25T00:05:10.046Z,4.10
2019-03-25T00:07:45.338Z,4.40
2019-03-25T00:10:20.034Z,4.83
2019-03-25T00:12:55.012Z,4.90
2019-03-25T00:15:29.767Z,5.00
2019-03-25T00:18:04.264Z,5.50
2019-03-25T00:20:39.431Z,4.83
2019-03-25T00:23:13.895Z,5.17
2019-03-25T00:25:48.691Z,4.87
2019-03-25T00:28:23.804Z,5.00
2019-03-25T00:30:59.827Z,5.07
2019-03-25T00:33:35.783Z,5.40
2019-03-25T00:36:10.801Z,5.37
2019-03-25T00:38:45.655Z,4.87
2019-03-25T00:41:20.990Z,5.07
2019-03-25T00:43:56.031Z,5.20
2019-03-25T00:46:30.626Z,5.03
2019-03-25T00:49:06.683Z,5.10
2019-03-25T00:51:41.386Z,4.90
2019-03-25T00:54:19.901Z,4.30
2019-03-25T00:56:58.368Z,4.97
2019-03-25T00:59:34.087Z,4.43
2019-03-25T01:02:09.105Z,4.93
2019-03-25T01:04:44.215Z,4.13
2019-03-25T01:07:19.532Z,4.23
2019-03-25T01:09:54.466Z,4.70
2019-03-25T01:12:29.475Z,5.00
2019-03-25T01:15:07.811Z,5.10
2019-03-25T01:17:42.591Z,4.90
2019-03-25T01:20:17.866Z,5.03
2019-03-25T01:22:52.934Z,4.73
2019-03-25T01:25:28.594Z,5.60
2019-03-25T01:28:03.360Z,5.17
2019-03-25T01:30:38.570Z,5.10
2019-03-25T01:33:14.056Z,5.17
2019-03-25T01:35:48.835Z,5.03
2019-03-25T01:38:23.735Z,5.03
2019-03-25T01:40:59.003Z,4.83
2019-03-25T01:43:34.133Z,4.77
2019-03-25T01:46:08.866Z,5.77
2019-03-25T01:48:43.990Z,5.72
2019-03-25T01:51:19.237Z,5.73
2019-03-25T01:53:53.926Z,5.47
2019-03-25T01:56:29.924Z,6.20
2019-03-25T01:59:04.679Z,5.47
2019-03-25T02:01:39.670Z,5.30
2019-03-25T02:04:15.042Z,5.63
2019-03-25T02:06:49.691Z,5.40
2019-03-25T02:09:24.848Z,5.70
2019-03-25T02:12:00.395Z,5.23
2019-03-25T02:14:35.503Z,4.80
2019-03-25T02:17:10.504Z,5.63
2019-03-25T02:19:45.916Z,5.10
2019-03-25T02:22:21.119Z,5.57
2019-03-25T02:24:56.651Z,6.00
2019-03-25T02:27:32.170Z,6.20
2019-03-25T02:30:09.313Z,5.77
2019-03-25T02:32:45.331Z,4.97
2019-03-25T02:35:20.512Z,6.57
2019-03-25T02:37:55.909Z,5.70
2019-03-25T02:40:30.466Z,6.10
2019-03-25T02:43:05.128Z,5.67
2019-03-25T02:45:40.654Z,5.17
2019-03-25T02:48:16.223Z,5.83
2019-03-25T02:50:54.018Z,6.60
2019-03-25T02:53:28.955Z,5.50
2019-03-25T02:56:03.596Z,6.20
2019-03-25T02:58:39.863Z,6.30
2019-03-25T03:01:15.255Z,6.40
2019-03-25T03:03:50.136Z,6.80
2019-03-25T03:06:26.792Z,6.33
2019-03-25T03:09:01.627Z,6.40
2019-03-25T03:11:36.223Z,6.73
2019-03-25T03:14:15.146Z,6.43
2019-03-25T03:16:50.338Z,6.33
2019-03-25T03:19:24.884Z,6.80
2019-03-25T03:22:00.100Z,6.10
2019-03-25T03:24:34.959Z,6.47
2019-03-25T03:27:09.968Z,6.17
2019-03-25T03:29:45.381Z,6.57
2019-03-25T03:32:20.763Z,6.67
2019-03-25T03:34:55.465Z,6.80
2019-03-25T03:37:31.772Z,6.87
2019-03-25T03:40:06.592Z,6.80
2019-03-25T03:42:41.910Z,6.50
2019-03-25T03:45:18.846Z,7.18
2019-03-25T03:47:53.426Z,7.40
2019-03-25T03:50:29.272Z,6.83
2019-03-25T03:53:04.284Z,7.10
2019-03-25T03:55:42.103Z,6.50
2019-03-25T03:58:16.972Z,6.87
2019-03-25T04:00:52.104Z,6.77
2019-03-25T04:03:28.111Z,6.53
2019-03-25T04:06:02.717Z,7.03
2019-03-25T04:08:37.700Z,6.80
2019-03-25T04:11:13.805Z,6.70
2019-03-25T04:13:48.298Z,6.53
2019-03-25T04:16:22.854Z,6.30
2019-03-25T04:18:59.030Z,6.90
2019-03-25T04:21:34.018Z,6.27
2019-03-25T04:24:08.488Z,6.67
2019-03-25T04:26:45.835Z,6.47
2019-03-25T04:29:20.397Z,7.20
2019-03-25T04:31:55.259Z,6.33
2019-03-25T04:34:32.237Z,6.77
2019-03-25T04:37:07.508Z,6.90
2019-03-25T04:39:42.369Z,6.67
2019-03-25T04:42:17.647Z,7.03
2019-03-25T04:44:52.504Z,7.63
2019-03-25T04:47:26.983Z,7.00
2019-03-25T04:50:02.662Z,7.90
2019-03-25T04:52:37.887Z,8.00
2019-03-25T04:55:12.714Z,8.23
2019-03-25T04:57:47.938Z,8.23
2019-03-25T05:00:37.458Z,8.10
2019-03-25T05:03:12.955Z,8.45
2019-03-25T05:05:48.895Z,6.83
2019-03-25T05:08:25.542Z,7.57
2019-03-25T05:11:03.730Z,7.47
2019-03-25T05:13:38.554Z,7.23
2019-03-25T05:16:13.940Z,7.67
2019-03-25T05:18:48.931Z,6.87
2019-03-25T05:21:24.124Z,6.63
2019-03-25T05:24:01.796Z,6.10
2019-03-25T05:26:37.515Z,6.50
2019-03-25T05:29:13.995Z,6.47
2019-03-25T05:31:50.940Z,6.30
2019-03-25T05:34:25.407Z,5.70
2019-03-25T05:37:02.103Z,6.03
2019-03-25T05:39:37.941Z,6.00
2019-03-25T05:42:13.404Z,5.90
2019-03-25T05:44:48.521Z,4.80
2019-03-25T05:47:23.152Z,4.67
2019-03-25T05:49:58.422Z,4.43
2019-03-25T05:52:33.469Z,4.80
2019-03-25T05:55:08.778Z,4.43
2019-03-25T05:57:44.417Z,4.53
2019-03-25T06:00:22.349Z,4.20
2019-03-25T06:02:57.614Z,4.37
2019-03-25T06:05:34.798Z,3.77
2019-03-25T06:08:11.042Z,3.83
2019-03-25T06:10:46.770Z,3.50
2019-03-25T06:13:21.520Z,3.30
2019-03-25T06:15:58.575Z,3.80
2019-03-25T06:18:34.007Z,4.22
2019-03-25T06:21:08.541Z,3.47
2019-03-25T06:23:45.471Z,3.90
2019-03-25T06:26:20.939Z,3.90
2019-03-25T06:28:56.311Z,4.40
2019-03-25T06:31:32.747Z,5.13
2019-03-25T06:34:07.542Z,4.47
2019-03-25T06:36:42.339Z,3.73
2019-03-25T06:39:17.798Z,4.35
2019-03-25T06:41:56.016Z,4.23
2019-03-25T06:44:32.413Z,4.03
2019-03-25T06:47:07.482Z,3.73
2019-03-25T06:49:45.453Z,4.07
2019-03-25T06:52:21.506Z,4.10
2019-03-25T06:54:57.419Z,4.07
2019-03-25T06:57:32.382Z,5.17
2019-03-25T07:00:09.397Z,4.90
2019-03-25T07:02:46.071Z,4.13
2019-03-25T07:05:20.878Z,4.23
2019-03-25T07:07:55.924Z,3.70
2019-03-25T07:10:37.987Z,4.33
2019-03-25T07:13:12.930Z,4.82
2019-03-25T07:15:48.446Z,4.60
2019-03-25T07:18:24.643Z,4.20
2019-03-25T07:20:59.627Z,4.90
2019-03-25T07:23:34.265Z,4.43
2019-03-25T07:26:09.380Z,4.83
2019-03-25T07:28:44.905Z,4.13
2019-03-25T07:31:19.894Z,3.93
2019-03-25T07:33:55.319Z,4.45
2019-03-25T07:36:30.206Z,5.53
2019-03-25T07:39:05.873Z,5.00
2019-03-25T07:41:41.251Z,4.60
2019-03-25T07:44:15.931Z,4.43
2019-03-25T07:46:51.499Z,4.00
2019-03-25T07:49:29.842Z,4.10
2019-03-25T07:52:07.679Z,5.33
2019-03-25T07:54:43.127Z,4.37
2019-03-25T07:57:17.833Z,4.43
2019-03-25T07:59:53.166Z,4.50
2019-03-25T08:02:27.700Z,4.47
2019-03-25T08:05:03.235Z,4.80
2019-03-25T08:07:38.498Z,3.90
2019-03-25T08:10:20.358Z,4.62
2019-03-25T08:12:56.179Z,4.67
2019-03-25T08:15:33.789Z,5.03
2019-03-25T08:18:15.199Z,4.37
2019-03-25T08:20:49.736Z,4.17
2019-03-25T08:23:25.803Z,3.97
2019-03-25T08:26:00.669Z,4.20
2019-03-25T08:28:36.857Z,3.53
2019-03-25T08:31:11.838Z,3.43
2019-03-25T08:33:46.624Z,3.65
2019-03-25T08:36:21.824Z,3.65
2019-03-25T08:39:02.844Z,4.00
2019-03-25T08:41:38.560Z,4.03
2019-03-25T08:44:14.132Z,3.40
2019-03-25T08:46:49.857Z,4.30
2019-03-25T08:49:24.603Z,3.70
2019-03-25T08:52:00.939Z,3.43
2019-03-25T08:54:38.065Z,3.57
2019-03-25T08:57:18.279Z,3.90
2019-03-25T08:59:53.347Z,3.95
2019-03-25T09:02:27.930Z,3.77
2019-03-25T09:05:05.303Z,4.20
2019-03-25T09:07:41.679Z,3.40
2019-03-25T09:10:18.347Z,3.43
2019-03-25T09:12:53.374Z,3.40
2019-03-25T09:15:41.675Z,3.73
2019-03-25T09:18:18.230Z,4.10
2019-03-25T09:20:52.997Z,3.13
2019-03-25T09:23:30.430Z,2.70
2019-03-25T09:26:05.353Z,3.37
2019-03-25T09:28:40.277Z,3.97
2019-03-25T09:31:18.675Z,2.93
2019-03-25T09:33:56.763Z,2.83
2019-03-25T09:36:32.443Z,3.27
2019-03-25T09:39:08.521Z,2.97
2019-03-25T09:41:43.621Z,3.13
2019-03-25T09:44:19.658Z,2.73
2019-03-25T09:46:56.840Z,2.40
2019-03-25T09:49:31.913Z,2.70
2019-03-25T09:52:08.148Z,2.90
2019-03-25T09:54:43.913Z,2.85
2019-03-25T09:57:20.515Z,2.77
2019-03-25T10:00:00.346Z,3.27
2019-03-25T10:02:43.212Z,3.77
2019-03-25T10:05:23.006Z,3.70
2019-03-25T10:07:59.043Z,3.27
2019-03-25T10:10:36.035Z,3.50
2019-03-25T10:13:22.653Z,3.60
2019-03-25T10:15:58.175Z,3.70
2019-03-25T10:18:43.035Z,3.20
2019-03-25T10:21:18.901Z,3.90
2019-03-25T10:23:55.129Z,3.03
2019-03-25T10:26:42.786Z,2.73
2019-03-25T10:29:17.491Z,2.70
2019-03-25T10:31:52.871Z,3.20
2019-03-25T10:34:32.011Z,2.20
2019-03-25T10:37:07.172Z,2.73
2019-03-25T10:39:42.786Z,3.27
2019-03-25T10:42:18.547Z,2.70
2019-03-25T10:44:54.070Z,2.87
2019-03-25T10:47:29.479Z,2.75
2019-03-25T10:50:05.508Z,2.60
2019-03-25T10:52:41.763Z,2.90
2019-03-25T10:55:16.645Z,2.10
2019-03-25T10:57:56.139Z,2.70
2019-03-25T11:00:32.372Z,2.70
2019-03-25T11:03:10.989Z,2.43
2019-03-25T11:05:49.601Z,2.60
2019-03-25T11:08:30.214Z,2.40
2019-03-25T11:11:07.347Z,2.37
2019-03-25T11:13:42.054Z,2.03
2019-03-25T11:16:24.979Z,2.23
2019-03-25T11:19:01.322Z,1.60
2019-03-25T11:21:37.220Z,1.90
2019-03-25T11:24:12.058Z,2.13
2019-03-25T11:26:47.797Z,2.35
2019-03-25T11:29:23.505Z,2.47
2019-03-25T11:31:59.818Z,1.70
2019-03-25T11:34:36.120Z,2.13
2019-03-25T11:37:11.288Z,1.70
2019-03-25T11:39:49.217Z,2.03
2019-03-25T11:42:24.316Z,2.33
2019-03-25T11:44:59.878Z,2.55
2019-03-25T11:47:34.759Z,2.23
2019-03-25T11:50:10.069Z,2.30
2019-03-25T11:52:44.805Z,1.97
2019-03-25T11:55:19.982Z,1.73
2019-03-25T11:57:56.196Z,1.93
2019-03-25T12:00:33.768Z,1.37
2019-03-25T12:03:12.074Z,1.83
2019-03-25T12:05:50.575Z,1.80
2019-03-25T12:08:29.803Z,1.63
2019-03-25T12:11:05.115Z,1.70
2019-03-25T12:13:40.208Z,2.00
2019-03-25T12:16:17.063Z,2.57
2019-03-25T12:18:54.822Z,2.20
2019-03-25T12:21:32.979Z,2.03
2019-03-25T12:24:11.120Z,1.90
2019-03-25T12:26:47.994Z,2.60
2019-03-25T12:29:29.922Z,2.50
2019-03-25T12:32:06.802Z,3.00
2019-03-25T12:34:42.968Z,3.30
2019-03-25T12:37:21.590Z,2.90
2019-03-25T12:39:57.586Z,2.03
2019-03-25T12:42:49.375Z,1.63
2019-03-25T12:45:24.939Z,2.00
2019-03-25T12:48:01.239Z,2.43
2019-03-25T12:50:37.469Z,3.10
2019-03-25T12:53:13.191Z,3.50
2019-03-25T12:55:48.594Z,3.03
2019-03-25T12:58:26.828Z,5.27
2019-03-25T13:01:03.715Z,3.20
2019-03-25T13:03:40.803Z,4.77
2019-03-25T13:06:17.779Z,4.10
2019-03-25T13:08:52.418Z,3.57
2019-03-25T13:11:29.939Z,3.40
2019-03-25T13:14:04.647Z,3.93
2019-03-25T13:16:39.527Z,2.50
2019-03-25T13:19:14.771Z,2.30
2019-03-25T13:21:50.395Z,2.43
2019-03-25T13:24:29.451Z,2.63
2019-03-25T13:27:13.289Z,1.97
2019-03-25T13:29:52.913Z,1.83
2019-03-25T13:32:32.761Z,2.63
2019-03-25T13:35:09.211Z,1.70
2019-03-25T13:37:45.509Z,2.20
2019-03-25T13:40:21.164Z,2.00
2019-03-25T13:42:57.717Z,1.97
2019-03-25T13:45:34.683Z,2.57
2019-03-25T13:48:10.244Z,2.90
2019-03-25T13:50:45.378Z,2.50
2019-03-25T13:53:21.333Z,2.60
2019-03-25T13:55:58.751Z,2.90
2019-03-25T13:58:42.992Z,2.93
2019-03-25T14:01:19.219Z,2.70
2019-03-25T14:03:57.042Z,2.70
2019-03-25T14:06:32.566Z,3.30
2019-03-25T14:09:10.443Z,2.77
2019-03-25T14:11:46.166Z,4.03
2019-03-25T14:14:24.069Z,4.03
2019-03-25T14:16:59.567Z,3.80
2019-03-25T14:19:34.376Z,2.63
2019-03-25T14:22:11.934Z,2.70
2019-03-25T14:24:47.773Z,2.87
2019-03-25T14:27:25.686Z,5.37
2019-03-25T14:30:14.386Z,4.47
2019-03-25T14:32:55.982Z,2.53
2019-03-25T14:35:32.607Z,3.13
2019-03-25T14:38:07.743Z,3.23
2019-03-25T14:40:44.271Z,4.13
2019-03-25T14:43:19.742Z,3.83
2019-03-25T14:45:56.211Z,4.73
2019-03-25T14:48:31.508Z,3.33
2019-03-25T14:51:08.215Z,2.77
2019-03-25T14:53:45.627Z,2.70
2019-03-25T14:56:21.083Z,2.80
2019-03-25T14:58:56.400Z,3.73
2019-03-25T15:01:31.072Z,3.60
2019-03-25T15:04:06.443Z,2.83
2019-03-25T15:06:53.432Z,3.55
2019-03-25T15:09:28.114Z,4.50
2019-03-25T15:12:04.640Z,3.97
2019-03-25T15:14:42.497Z,3.63
2019-03-25T15:17:19.739Z,3.33
2019-03-25T15:19:55.039Z,3.35
2019-03-25T15:22:30.612Z,2.73
2019-03-25T15:25:07.470Z,3.00
2019-03-25T15:27:50.228Z,2.63
2019-03-25T15:30:36.018Z,2.63
2019-03-25T15:33:13.452Z,3.60
2019-03-25T15:35:49.822Z,3.07
2019-03-25T15:38:25.647Z,3.85
2019-03-25T15:41:01.192Z,3.23
2019-03-25T15:43:38.697Z,3.77
2019-03-25T15:46:16.717Z,3.70
2019-03-25T15:48:55.072Z,3.93
2019-03-25T15:51:36.123Z,3.90
2019-03-25T15:54:13.561Z,4.07
2019-03-25T15:56:53.107Z,4.00
2019-03-25T15:59:30.444Z,4.03
2019-03-25T16:02:13.314Z,3.93
2019-03-25T16:04:50.995Z,3.40
2019-03-25T16:07:27.846Z,4.37
2019-03-25T16:10:05.439Z,4.40
2019-03-25T16:12:40.379Z,3.37
2019-03-25T16:15:38.620Z,4.32
2019-03-25T16:18:38.049Z,2.80
2019-03-25T16:21:14.627Z,3.80
2019-03-25T16:23:54.097Z,3.50
2019-03-25T16:26:30.106Z,3.37
2019-03-25T16:29:04.898Z,3.37
2019-03-25T16:31:40.184Z,3.60
2019-03-25T16:34:15.235Z,3.07
2019-03-25T16:36:50.603Z,2.77
2019-03-25T16:39:29.032Z,2.93
2019-03-25T16:42:06.268Z,2.90
2019-03-25T16:44:43.414Z,3.75
2019-03-25T16:47:23.221Z,3.77
2019-03-25T16:50:02.288Z,4.67
2019-03-25T16:52:39.324Z,4.67
2019-03-25T16:55:14.068Z,3.23
2019-03-25T16:57:49.984Z,3.63
2019-03-25T17:00:27.714Z,3.33
2019-03-25T17:03:06.713Z,4.87
2019-03-25T17:05:43.265Z,4.80
2019-03-25T17:08:20.281Z,2.90
2019-03-25T17:10:56.679Z,2.73
2019-03-25T17:13:33.679Z,2.27
2019-03-25T17:16:09.748Z,2.03
2019-03-25T17:18:50.928Z,2.43
2019-03-25T17:21:27.680Z,1.87
2019-03-25T17:24:05.054Z,1.80
2019-03-25T17:26:43.591Z,1.60
2019-03-25T17:29:18.204Z,1.90
2019-03-25T17:31:54.902Z,1.47
2019-03-25T17:34:29.930Z,2.20
2019-03-25T17:37:06.486Z,1.60
2019-03-25T17:39:48.394Z,1.50
2019-03-25T17:42:26.315Z,1.90
2019-03-25T17:45:05.464Z,1.63
2019-03-25T17:47:41.391Z,2.00
2019-03-25T17:50:18.908Z,2.13
2019-03-25T17:52:55.365Z,1.60
2019-03-25T17:55:35.574Z,1.90
2019-03-25T17:58:10.247Z,2.20
2019-03-25T18:01:08.864Z,2.30
2019-03-25T18:03:44.474Z,3.67
2019-03-25T18:06:21.034Z,2.30
2019-03-25T18:08:58.946Z,2.97
2019-03-25T18:11:35.222Z,4.47
2019-03-25T18:14:12.655Z,3.13
2019-03-25T18:16:50.763Z,2.13
2019-03-25T18:19:34.735Z,2.20
2019-03-25T18:22:12.619Z,1.90
2019-03-25T18:24:51.479Z,1.80
2019-03-25T18:27:30.111Z,1.60
2019-03-25T18:30:14.265Z,2.30
2019-03-25T18:32:55.264Z,2.00
2019-03-25T18:35:31.460Z,1.90
2019-03-25T18:38:07.809Z,2.23
2019-03-25T18:40:45.834Z,2.40
2019-03-25T18:43:25.100Z,2.50
2019-03-25T18:46:02.005Z,2.40
2019-03-25T18:48:40.036Z,2.53
2019-03-25T18:51:15.598Z,2.27
2019-03-25T18:53:50.811Z,2.10
2019-03-25T18:56:34.476Z,2.40
2019-03-25T18:59:11.807Z,2.73
2019-03-25T19:01:54.529Z,2.33
2019-03-25T19:04:29.831Z,2.40
2019-03-25T19:07:06.970Z,2.67
2019-03-25T19:09:41.845Z,2.20
2019-03-25T19:12:18.247Z,2.60
2019-03-25T19:14:55.315Z,1.97
2019-03-25T19:17:34.589Z,2.37
2019-03-25T19:20:11.572Z,2.40
2019-03-25T19:22:47.549Z,3.20
2019-03-25T19:25:23.028Z,2.70
2019-03-25T19:28:02.107Z,2.30
2019-03-25T19:30:38.582Z,2.07
2019-03-25T19:33:13.245Z,2.40
2019-03-25T19:35:48.842Z,2.00
2019-03-25T19:38:26.885Z,2.10
2019-03-25T19:41:02.217Z,2.87
2019-03-25T19:43:41.925Z,2.60
2019-03-25T19:46:17.076Z,2.80
2019-03-25T19:48:54.520Z,2.63
2019-03-25T19:51:30.147Z,2.70
2019-03-25T19:54:05.352Z,2.20
2019-03-25T19:56:42.472Z,2.40
2019-03-25T19:59:17.314Z,2.73
2019-03-25T20:01:52.133Z,2.83
2019-03-25T20:04:28.651Z,2.43
2019-03-25T20:07:04.675Z,2.77
2019-03-25T20:09:42.611Z,3.40
2019-03-25T20:12:17.667Z,3.10
2019-03-25T20:14:52.880Z,5.03
2019-03-25T20:17:28.047Z,2.77
2019-03-25T20:20:04.222Z,2.87
2019-03-25T20:22:40.543Z,2.40
2019-03-25T20:25:16.050Z,2.47
2019-03-25T20:27:51.009Z,2.77
2019-03-25T20:30:27.527Z,2.90
2019-03-25T20:33:10.574Z,3.70
2019-03-25T20:35:45.639Z,2.50
2019-03-25T20:38:22.738Z,2.70
2019-03-25T20:40:57.782Z,2.57
2019-03-25T20:43:34.963Z,2.40
2019-03-25T20:46:10.856Z,3.03
2019-03-25T20:48:46.566Z,2.47
2019-03-25T20:51:22.073Z,2.57
2019-03-25T20:53:57.609Z,2.67
2019-03-25T20:56:32.749Z,2.33
2019-03-25T20:59:09.160Z,2.93
2019-03-25T21:01:45.235Z,3.47
2019-03-25T21:04:20.817Z,3.30
2019-03-25T21:06:55.963Z,3.50
2019-03-25T21:09:31.853Z,3.17
2019-03-25T21:12:07.284Z,4.07
2019-03-25T21:14:44.704Z,7.10
2019-03-25T21:17:20.970Z,8.07
2019-03-25T21:19:57.156Z,7.75
2019-03-25T21:22:34.310Z,5.47
2019-03-25T21:25:14.937Z,4.00
2019-03-25T21:27:49.676Z,3.53
2019-03-25T21:30:28.195Z,3.27
2019-03-25T21:33:05.556Z,3.27
2019-03-25T21:35:40.220Z,5.03
2019-03-25T21:38:16.688Z,3.20
2019-03-25T21:40:52.270Z,3.43
2019-03-25T21:43:27.443Z,3.20
2019-03-25T21:46:05.197Z,2.90
2019-03-25T21:48:42.438Z,3.57
2019-03-25T21:51:20.824Z,3.37
2019-03-25T21:53:57.431Z,3.47
2019-03-25T21:56:32.207Z,3.40
2019-03-25T21:59:08.851Z,3.30
2019-03-25T22:01:47.430Z,3.63
2019-03-25T22:04:23.843Z,3.50
2019-03-25T22:06:59.438Z,3.10
2019-03-25T22:09:45.507Z,3.30
2019-03-25T22:12:20.131Z,2.93
2019-03-25T22:14:55.226Z,3.37
2019-03-25T22:17:30.846Z,3.43
2019-03-25T22:20:07.143Z,2.80
2019-03-25T22:22:42.164Z,3.00
2019-03-25T22:25:18.105Z,3.67
2019-03-25T22:27:53.715Z,3.20
2019-03-25T22:30:30.757Z,3.80
2019-03-25T22:33:08.160Z,3.60
2019-03-25T22:35:45.279Z,4.33
2019-03-25T22:38:20.499Z,3.87
2019-03-25T22:40:55.399Z,3.40
2019-03-25T22:43:30.717Z,3.70
2019-03-25T22:46:06.282Z,3.83
2019-03-25T22:48:41.450Z,4.67
2019-03-25T22:51:20.847Z,3.43
2019-03-25T22:54:00.050Z,3.50
2019-03-25T22:56:37.568Z,3.20
2019-03-25T22:59:14.514Z,3.30
2019-03-25T23:01:58.499Z,3.67
2019-03-25T23:04:34.848Z,3.47
2019-03-25T23:07:35.210Z,3.17
2019-03-25T23:10:11.097Z,3.13
2019-03-25T23:12:45.905Z,4.77
2019-03-25T23:15:21.058Z,4.10
2019-03-25T23:17:56.201Z,3.43
2019-03-25T23:20:32.154Z,3.67
2019-03-25T23:23:08.638Z,3.63
2019-03-25T23:25:43.874Z,4.57
2019-03-25T23:28:19.197Z,4.28
2019-03-25T23:30:54.356Z,3.87
2019-03-25T23:33:30.326Z,3.63
2019-03-25T23:36:05.700Z,3.70
2019-03-25T23:38:41.730Z,3.67
2019-03-25T23:41:18.523Z,3.60
2019-03-25T23:43:54.687Z,3.47
2019-03-25T23:46:29.852Z,3.57
2019-03-25T23:49:04.519Z,3.95
2019-03-25T23:51:39.018Z,4.37
2019-03-25T23:54:15.511Z,4.07
2019-03-25T23:56:50.324Z,4.00
2019-03-25T23:59:25.450Z,3.80
